createdAt,value
2018-04-20T00:01:46.417Z,11.40
2018-04-20T00:04:15.501Z,11.10
2018-04-20T00:06:43.805Z,11.00
2018-04-20T00:09:12.161Z,11.10
2018-04-20T00:11:40.465Z,11.10
2018-04-20T00:14:09.554Z,11.00
2018-04-20T00:16:38.634Z,10.70
2018-04-20T00:19:06.955Z,10.70
2018-04-20T00:21:35.262Z,10.60
2018-04-20T00:24:03.582Z,10.50
2018-04-20T00:26:31.890Z,10.50
2018-04-20T00:29:00.214Z,10.40
2018-04-20T00:31:32.680Z,10.50
2018-04-20T00:34:01.042Z,10.40
2018-04-20T00:36:29.360Z,10.50
2018-04-20T00:38:57.691Z,10.40
2018-04-20T00:41:25.998Z,10.50
2018-04-20T00:43:54.302Z,10.50
2018-04-20T00:46:22.622Z,10.50
2018-04-20T00:48:50.925Z,10.70
2018-04-20T00:51:24.557Z,10.40
2018-04-20T00:54:04.601Z,10.40
2018-04-20T00:56:32.922Z,10.30
2018-04-20T00:59:01.991Z,10.00
2018-04-20T01:01:30.315Z,10.00
2018-04-20T01:03:58.623Z,10.00
2018-04-20T01:06:26.950Z,10.00
2018-04-20T01:08:56.016Z,9.90
2018-04-20T01:11:24.325Z,9.90
2018-04-20T01:13:53.404Z,10.00
2018-04-20T01:16:22.502Z,9.90
2018-04-20T01:18:50.793Z,9.80
2018-04-20T01:21:19.872Z,9.70
2018-04-20T01:23:55.264Z,9.70
2018-04-20T01:26:23.593Z,9.60
2018-04-20T01:28:51.898Z,9.60
2018-04-20T01:31:20.984Z,9.60
2018-04-20T01:33:49.318Z,9.60
2018-04-20T01:36:17.637Z,9.50
2018-04-20T01:38:56.417Z,9.50
2018-04-20T01:41:24.730Z,9.60
2018-04-20T01:43:53.041Z,9.50
2018-04-20T01:46:22.104Z,9.50
2018-04-20T01:48:50.429Z,9.50
2018-04-20T01:51:18.730Z,9.50
2018-04-20T01:53:47.045Z,9.50
2018-04-20T01:56:15.349Z,9.50
2018-04-20T01:58:43.667Z,9.40
2018-04-20T02:01:11.964Z,9.30
2018-04-20T02:03:40.275Z,9.20
2018-04-20T02:06:09.353Z,9.20
2018-04-20T02:08:38.571Z,9.10
2018-04-20T02:11:07.648Z,9.00
2018-04-20T02:13:36.071Z,8.90
2018-04-20T02:16:04.415Z,8.80
2018-04-20T02:18:32.744Z,8.80
2018-04-20T02:21:01.059Z,8.70
2018-04-20T02:23:29.375Z,8.90
2018-04-20T02:25:58.444Z,8.90
2018-04-20T02:28:26.947Z,8.90
2018-04-20T02:30:55.263Z,8.90
2018-04-20T02:33:23.723Z,8.80
2018-04-20T02:35:52.814Z,8.90
2018-04-20T02:38:21.123Z,8.90
2018-04-20T02:40:49.451Z,8.90
2018-04-20T02:43:17.747Z,8.90
2018-04-20T02:45:46.063Z,8.70
2018-04-20T02:48:14.368Z,8.70
2018-04-20T02:50:42.702Z,8.70
2018-04-20T02:53:11.867Z,8.60
2018-04-20T02:55:40.195Z,8.60
2018-04-20T02:58:08.512Z,8.50
2018-04-20T03:00:36.838Z,8.50
2018-04-20T03:03:05.162Z,8.40
2018-04-20T03:05:33.489Z,8.30
2018-04-20T03:08:02.561Z,8.10
2018-04-20T03:10:30.889Z,8.00
2018-04-20T03:12:59.984Z,8.30
2018-04-20T03:15:28.307Z,8.30
2018-04-20T03:17:56.649Z,8.40
2018-04-20T03:20:25.006Z,8.30
2018-04-20T03:22:53.299Z,8.30
2018-04-20T03:25:21.626Z,8.30
2018-04-20T03:27:50.939Z,8.20
2018-04-20T03:30:19.254Z,8.30
2018-04-20T03:32:47.546Z,8.20
2018-04-20T03:35:15.866Z,8.10
2018-04-20T03:37:44.189Z,8.10
2018-04-20T03:40:12.498Z,7.80
2018-04-20T03:42:41.583Z,8.10
2018-04-20T03:45:09.895Z,8.00
2018-04-20T03:47:38.219Z,8.10
2018-04-20T03:50:06.510Z,8.00
2018-04-20T03:52:34.834Z,8.00
2018-04-20T03:55:03.137Z,8.20
2018-04-20T03:57:32.253Z,8.30
2018-04-20T04:00:00.600Z,8.30
2018-04-20T04:02:28.939Z,8.10
2018-04-20T04:04:58.275Z,8.20
2018-04-20T04:07:29.643Z,8.10
2018-04-20T04:09:58.733Z,7.90
2018-04-20T04:12:27.069Z,7.90
2018-04-20T04:14:55.361Z,7.80
2018-04-20T04:17:35.317Z,7.80
2018-04-20T04:20:15.275Z,7.80
2018-04-20T04:22:55.429Z,7.90
2018-04-20T04:25:35.509Z,7.80
2018-04-20T04:28:15.565Z,7.90
2018-04-20T04:30:43.870Z,7.90
2018-04-20T04:33:12.202Z,7.70
2018-04-20T04:35:40.528Z,7.70
2018-04-20T04:38:09.631Z,7.90
2018-04-20T04:40:38.797Z,7.90
2018-04-20T04:43:08.135Z,7.90
2018-04-20T04:45:36.433Z,7.90
2018-04-20T04:48:04.809Z,7.90
2018-04-20T04:50:33.127Z,7.90
2018-04-20T04:53:01.439Z,7.90
2018-04-20T04:55:30.536Z,7.90
2018-04-20T04:57:59.616Z,7.90
2018-04-20T05:00:27.974Z,7.90
2018-04-20T05:02:56.262Z,7.90
2018-04-20T05:05:24.604Z,8.10
2018-04-20T05:07:52.899Z,8.20
2018-04-20T05:10:21.261Z,8.30
2018-04-20T05:12:53.144Z,8.40
2018-04-20T05:15:21.474Z,8.50
2018-04-20T05:17:50.547Z,8.90
2018-04-20T05:20:18.873Z,8.90
2018-04-20T05:22:47.203Z,9.00
2018-04-20T05:25:15.537Z,9.10
2018-04-20T05:27:43.881Z,9.20
2018-04-20T05:30:13.009Z,9.70
2018-04-20T05:32:41.323Z,9.60
2018-04-20T05:35:09.661Z,9.70
2018-04-20T05:37:38.067Z,9.90
2018-04-20T05:40:06.414Z,10.00
2018-04-20T05:42:34.755Z,10.10
2018-04-20T05:45:03.915Z,10.10
2018-04-20T05:47:32.218Z,10.00
2018-04-20T05:50:00.535Z,10.40
2018-04-20T05:52:28.871Z,10.70
2018-04-20T05:54:57.170Z,10.90
2018-04-20T05:57:25.505Z,11.20
2018-04-20T05:59:54.012Z,11.10
2018-04-20T06:02:22.501Z,11.00
2018-04-20T06:04:50.817Z,11.60
2018-04-20T06:07:19.310Z,12.00
2018-04-20T06:09:48.388Z,12.50
2018-04-20T06:12:17.503Z,12.70
2018-04-20T06:14:46.583Z,12.70
2018-04-20T06:17:15.710Z,12.90
2018-04-20T06:19:44.039Z,12.90
2018-04-20T06:22:12.377Z,13.20
2018-04-20T06:24:40.722Z,13.50
2018-04-20T06:27:09.088Z,13.80
2018-04-20T06:29:37.391Z,14.00
2018-04-20T06:32:05.744Z,14.30
2018-04-20T06:34:34.242Z,14.20
2018-04-20T06:37:03.379Z,14.90
2018-04-20T06:39:31.715Z,14.90
2018-04-20T06:42:00.026Z,15.20
2018-04-20T06:44:28.373Z,15.20
2018-04-20T06:46:56.711Z,15.50
2018-04-20T06:49:25.050Z,15.80
2018-04-20T06:51:53.351Z,15.90
2018-04-20T06:54:21.689Z,16.20
2018-04-20T06:56:50.055Z,16.20
2018-04-20T06:59:18.415Z,16.10
2018-04-20T07:01:46.740Z,16.60
2018-04-20T07:04:15.858Z,17.20
2018-04-20T07:06:44.175Z,17.20
2018-04-20T07:09:12.513Z,17.50
2018-04-20T07:11:40.856Z,18.00
2018-04-20T07:14:09.199Z,18.40
2018-04-20T07:16:37.552Z,18.40
2018-04-20T07:19:05.896Z,18.30
2018-04-20T07:21:34.224Z,18.50
2018-04-20T07:24:02.586Z,19.00
2018-04-20T07:26:31.668Z,18.60
2018-04-20T07:32:01.226Z,18.30
2018-04-20T07:34:30.515Z,18.70
2018-04-20T07:36:59.588Z,19.30
2018-04-20T07:39:27.935Z,19.30
2018-04-20T07:41:56.264Z,19.40
2018-04-20T07:44:24.608Z,19.20
2018-04-20T07:46:52.953Z,18.40
2018-04-20T07:49:21.293Z,18.90
2018-04-20T07:51:53.331Z,19.50
2018-04-20T07:54:21.681Z,19.20
2018-04-20T07:56:50.031Z,19.20
2018-04-20T07:59:18.357Z,19.50
2018-04-20T08:01:46.719Z,19.70
2018-04-20T08:04:15.050Z,19.30
2018-04-20T08:06:43.393Z,19.70
2018-04-20T08:09:11.715Z,20.50
2018-04-20T08:11:40.060Z,20.60
2018-04-20T08:14:08.408Z,20.60
2018-04-20T08:16:36.755Z,20.40
2018-04-20T08:19:05.836Z,20.40
2018-04-20T08:21:34.170Z,20.40
2018-04-20T08:24:02.496Z,21.00
2018-04-20T08:26:30.829Z,20.30
2018-04-20T08:28:59.167Z,20.60
2018-04-20T08:31:27.520Z,21.10
2018-04-20T08:33:55.830Z,21.20
2018-04-20T08:36:24.960Z,21.20
2018-04-20T08:38:53.274Z,21.20
2018-04-20T08:41:21.720Z,21.60
2018-04-20T08:43:50.053Z,21.30
2018-04-20T08:46:18.388Z,21.90
2018-04-20T08:48:46.728Z,22.20
2018-04-20T08:51:15.027Z,22.30
2018-04-20T08:53:44.131Z,22.80
2018-04-20T08:56:12.448Z,22.70
2018-04-20T08:58:40.820Z,22.50
2018-04-20T09:01:09.147Z,22.70
2018-04-20T09:03:38.287Z,22.90
2018-04-20T09:06:06.723Z,22.90
2018-04-20T09:08:35.847Z,23.20
2018-04-20T09:11:04.289Z,23.20
2018-04-20T09:13:32.630Z,23.10
2018-04-20T09:16:00.954Z,23.40
2018-04-20T09:18:29.345Z,22.80
2018-04-20T09:20:57.635Z,22.90
2018-04-20T09:23:25.982Z,23.60
2018-04-20T09:25:54.319Z,23.40
2018-04-20T09:28:22.657Z,24.00
2018-04-20T09:30:51.768Z,24.30
2018-04-20T09:33:20.085Z,24.20
2018-04-20T09:35:48.436Z,24.10
2018-04-20T09:38:16.752Z,23.70
2018-04-20T09:40:45.083Z,24.00
2018-04-20T09:43:13.425Z,24.00
2018-04-20T09:45:41.773Z,23.80
2018-04-20T09:48:10.102Z,23.70
2018-04-20T09:50:39.252Z,23.60
2018-04-20T09:53:07.550Z,23.60
2018-04-20T09:55:35.895Z,23.90
2018-04-20T09:58:04.202Z,24.10
2018-04-20T10:00:38.223Z,23.90
2018-04-20T10:03:07.516Z,24.20
2018-04-20T10:05:35.919Z,24.50
2018-04-20T10:08:05.208Z,24.40
2018-04-20T10:10:33.609Z,24.40
2018-04-20T10:13:02.687Z,24.40
2018-04-20T10:15:31.827Z,24.70
2018-04-20T10:18:00.138Z,24.60
2018-04-20T10:20:28.501Z,24.70
2018-04-20T10:22:56.875Z,24.70
2018-04-20T10:25:26.253Z,24.70
2018-04-20T10:27:54.576Z,24.70
2018-04-20T10:30:22.936Z,24.40
2018-04-20T10:32:51.265Z,24.30
2018-04-20T10:35:20.384Z,24.60
2018-04-20T10:37:48.715Z,24.60
2018-04-20T10:40:17.181Z,25.00
2018-04-20T10:42:45.509Z,24.70
2018-04-20T10:45:13.880Z,25.20
2018-04-20T10:47:45.012Z,25.70
2018-04-20T10:50:13.339Z,25.70
2018-04-20T10:52:41.697Z,25.10
2018-04-20T10:55:10.026Z,25.00
2018-04-20T10:57:38.389Z,25.10
2018-04-20T11:00:06.716Z,25.40
2018-04-20T11:02:35.109Z,25.20
2018-04-20T11:05:04.153Z,25.60
2018-04-20T11:07:32.503Z,25.50
2018-04-20T11:10:00.847Z,25.10
2018-04-20T11:12:29.189Z,24.90
2018-04-20T11:14:57.541Z,25.20
2018-04-20T11:17:25.945Z,25.80
2018-04-20T11:19:54.276Z,26.30
2018-04-20T11:22:22.638Z,26.40
2018-04-20T11:24:50.964Z,25.40
2018-04-20T11:27:21.319Z,25.20
2018-04-20T11:29:49.666Z,25.80
2018-04-20T11:32:17.990Z,25.30
2018-04-20T11:34:46.415Z,26.10
2018-04-20T11:37:14.751Z,25.70
2018-04-20T11:39:43.102Z,25.60
2018-04-20T11:42:12.206Z,26.20
2018-04-20T11:44:40.578Z,26.10
2018-04-20T11:47:08.929Z,25.90
2018-04-20T11:49:37.314Z,26.20
2018-04-20T11:52:05.634Z,26.80
2018-04-20T11:54:33.985Z,26.10
2018-04-20T11:57:03.094Z,26.50
2018-04-20T11:59:31.456Z,26.50
2018-04-20T12:02:06.771Z,26.50
2018-04-20T12:04:35.168Z,26.00
2018-04-20T12:07:03.499Z,26.50
2018-04-20T12:09:31.854Z,26.20
2018-04-20T12:12:00.163Z,26.40
2018-04-20T12:14:28.513Z,26.50
2018-04-20T12:16:56.851Z,26.80
2018-04-20T12:19:25.198Z,26.50
2018-04-20T12:21:53.524Z,26.60
2018-04-20T12:24:21.898Z,26.30
2018-04-20T12:26:50.226Z,26.20
2018-04-20T12:29:18.674Z,26.80
2018-04-20T12:31:48.835Z,26.30
2018-04-20T12:34:17.187Z,26.30
2018-04-20T12:36:45.593Z,26.30
2018-04-20T12:39:13.941Z,26.80
2018-04-20T12:41:42.299Z,27.30
2018-04-20T12:44:10.696Z,27.40
2018-04-20T12:46:41.078Z,27.30
2018-04-20T12:49:09.399Z,27.70
2018-04-20T12:51:37.789Z,27.80
2018-04-20T12:54:06.114Z,27.90
2018-04-20T12:56:34.518Z,28.20
2018-04-20T12:59:03.672Z,27.20
2018-04-20T13:01:32.026Z,27.20
2018-04-20T13:04:01.392Z,27.60
2018-04-20T13:06:29.834Z,27.40
2018-04-20T13:08:58.160Z,27.70
2018-04-20T13:11:27.324Z,27.50
2018-04-20T13:13:55.657Z,27.50
2018-04-20T13:16:23.998Z,27.90
2018-04-20T13:18:52.332Z,27.80
2018-04-20T13:21:20.684Z,27.20
2018-04-20T13:23:49.021Z,27.20
2018-04-20T13:26:17.377Z,27.40
2018-04-20T13:28:45.699Z,26.90
2018-04-20T13:31:14.043Z,27.50
2018-04-20T13:33:42.378Z,27.80
2018-04-20T13:36:10.777Z,27.90
2018-04-20T13:38:39.108Z,27.30
2018-04-20T13:41:09.102Z,27.60
2018-04-20T13:43:37.683Z,27.60
2018-04-20T13:46:06.103Z,27.80
2018-04-20T13:48:35.492Z,28.10
2018-04-20T13:51:04.580Z,28.50
2018-04-20T13:53:32.941Z,28.40
2018-04-20T13:56:01.272Z,27.80
2018-04-20T13:58:29.679Z,28.10
2018-04-20T14:00:57.995Z,28.20
2018-04-20T14:03:26.357Z,27.90
2018-04-20T14:05:54.700Z,28.50
2018-04-20T14:08:23.148Z,28.70
2018-04-20T14:10:51.460Z,29.00
2018-04-20T14:13:19.782Z,29.10
2018-04-20T14:15:48.111Z,29.10
2018-04-20T14:18:16.491Z,28.90
2018-04-20T14:20:44.832Z,29.10
2018-04-20T14:23:13.200Z,29.10
2018-04-20T14:25:41.587Z,29.00
2018-04-20T14:28:09.939Z,28.30
2018-04-20T14:30:38.305Z,28.50
2018-04-20T14:33:06.759Z,28.70
2018-04-20T14:35:35.136Z,28.70
2018-04-20T14:38:03.480Z,27.70
2018-04-20T14:40:31.840Z,27.80
2018-04-20T14:43:00.250Z,27.70
2018-04-20T14:45:28.613Z,27.90
2018-04-20T14:47:57.704Z,27.70
2018-04-20T14:50:26.965Z,27.80
2018-04-20T14:52:55.302Z,27.70
2018-04-20T14:55:23.647Z,27.60
2018-04-20T14:57:51.976Z,27.70
2018-04-20T15:00:20.318Z,27.70
2018-04-20T15:02:48.651Z,28.10
2018-04-20T15:05:17.017Z,28.20
2018-04-20T15:07:45.332Z,28.40
2018-04-20T15:10:14.470Z,28.30
2018-04-20T15:12:42.801Z,28.30
2018-04-20T15:15:11.154Z,28.60
2018-04-20T15:17:39.492Z,28.70
2018-04-20T15:20:07.860Z,28.10
2018-04-20T15:22:36.972Z,28.60
2018-04-20T15:25:05.310Z,28.60
2018-04-20T15:27:34.500Z,28.90
2018-04-20T15:30:02.822Z,28.90
2018-04-20T15:32:31.181Z,29.00
2018-04-20T15:34:59.581Z,29.00
2018-04-20T15:37:32.356Z,29.00
2018-04-20T15:40:00.663Z,28.80
2018-04-20T15:42:29.047Z,28.70
2018-04-20T15:44:57.465Z,28.70
2018-04-20T15:47:25.873Z,28.80
2018-04-20T15:49:54.243Z,28.90
2018-04-20T15:52:23.369Z,28.90
2018-04-20T15:54:51.736Z,28.80
2018-04-20T15:57:20.124Z,28.90
2018-04-20T15:59:48.464Z,28.90
2018-04-20T16:02:16.876Z,28.70
2018-04-20T16:04:45.975Z,28.90
2018-04-20T16:07:17.520Z,28.80
2018-04-20T16:09:45.865Z,28.90
2018-04-20T16:12:15.740Z,28.90
2018-04-20T16:14:45.372Z,28.80
2018-04-20T16:17:14.585Z,28.70
2018-04-20T16:19:43.019Z,28.70
2018-04-20T16:22:11.485Z,28.70
2018-04-20T16:24:40.716Z,28.10
2018-04-20T16:30:12.738Z,27.90
2018-04-20T16:32:41.167Z,27.80
2018-04-20T16:35:09.537Z,28.10
2018-04-20T16:37:37.947Z,28.10
2018-04-20T16:40:06.431Z,28.20
2018-04-20T16:42:34.841Z,28.20
2018-04-20T16:45:03.213Z,28.30
2018-04-20T16:47:32.290Z,28.50
2018-04-20T16:50:01.487Z,28.40
2018-04-20T16:52:29.791Z,28.40
2018-04-20T16:54:58.906Z,28.40
2018-04-20T16:57:27.251Z,28.40
2018-04-20T16:59:56.345Z,28.50
2018-04-20T17:02:25.407Z,28.30
2018-04-20T17:04:53.714Z,28.30
2018-04-20T17:07:22.008Z,28.20
2018-04-20T17:09:51.241Z,28.00
2018-04-20T17:12:20.439Z,28.00
2018-04-20T17:14:48.875Z,28.00
2018-04-20T17:17:18.164Z,28.20
2018-04-20T17:19:46.767Z,28.20
2018-04-20T17:22:15.200Z,28.10
2018-04-20T17:24:44.310Z,27.50
2018-04-20T17:27:12.682Z,27.50
2018-04-20T17:29:40.978Z,27.70
2018-04-20T17:32:09.293Z,27.80
2018-04-20T17:34:37.592Z,27.80
2018-04-20T17:37:10.308Z,26.60
2018-04-20T17:39:38.678Z,26.60
2018-04-20T17:42:06.973Z,26.70
2018-04-20T17:44:35.261Z,26.80
2018-04-20T17:47:04.381Z,26.80
2018-04-20T17:49:32.665Z,26.80
2018-04-20T17:52:00.970Z,26.50
2018-04-20T17:54:29.268Z,26.60
2018-04-20T17:56:57.566Z,26.40
2018-04-20T17:59:26.626Z,26.10
2018-04-20T18:01:54.949Z,26.10
2018-04-20T18:04:24.024Z,25.80
2018-04-20T18:06:56.693Z,25.80
2018-04-20T18:09:24.993Z,25.60
2018-04-20T18:11:57.541Z,25.00
2018-04-20T18:14:32.244Z,25.00
2018-04-20T18:17:00.579Z,24.90
2018-04-20T18:19:29.642Z,24.70
2018-04-20T18:22:00.995Z,24.70
2018-04-20T18:24:29.293Z,24.60
2018-04-20T18:26:58.340Z,24.30
2018-04-20T18:29:26.667Z,24.30
2018-04-20T18:31:55.907Z,23.80
2018-04-20T18:34:24.231Z,23.80
2018-04-20T18:36:52.526Z,23.80
2018-04-20T18:39:20.856Z,23.70
2018-04-20T18:41:49.145Z,23.60
2018-04-20T18:44:17.475Z,23.50
2018-04-20T18:46:45.789Z,23.30
2018-04-20T18:49:14.109Z,23.20
2018-04-20T18:51:44.174Z,22.90
2018-04-20T18:54:12.499Z,22.90
2018-04-20T18:56:40.789Z,22.60
2018-04-20T18:59:09.875Z,22.60
2018-04-20T19:01:38.169Z,22.50
2018-04-20T19:04:07.266Z,22.20
2018-04-20T19:06:35.564Z,22.20
2018-04-20T19:09:03.903Z,22.10
2018-04-20T19:11:33.026Z,21.70
2018-04-20T19:14:01.342Z,21.70
2018-04-20T19:16:29.641Z,21.20
2018-04-20T19:18:57.951Z,21.20
2018-04-20T19:21:26.256Z,21.30
2018-04-20T19:23:54.578Z,21.40
2018-04-20T19:26:22.867Z,21.30
2018-04-20T19:28:51.950Z,21.00
2018-04-20T19:31:20.235Z,21.00
2018-04-20T19:33:49.320Z,20.80
2018-04-20T19:36:17.646Z,20.70
2018-04-20T19:38:45.979Z,20.60
2018-04-20T19:41:14.280Z,20.40
2018-04-20T19:43:43.382Z,20.00
2018-04-20T19:46:11.666Z,19.90
2018-04-20T19:48:39.971Z,20.00
2018-04-20T19:51:08.278Z,19.80
2018-04-20T19:53:36.568Z,19.70
2018-04-20T19:56:05.657Z,19.40
2018-04-20T19:58:34.727Z,19.30
2018-04-20T20:01:03.046Z,19.20
2018-04-20T20:03:32.104Z,19.20
2018-04-20T20:06:00.411Z,19.20
2018-04-20T20:08:29.476Z,19.10
2018-04-20T20:10:57.807Z,19.00
2018-04-20T20:13:26.089Z,19.10
2018-04-20T20:15:54.397Z,18.80
2018-04-20T20:18:22.785Z,18.50
2018-04-20T20:20:51.107Z,18.40
2018-04-20T20:23:19.389Z,18.20
2018-04-20T20:25:52.431Z,18.00
2018-04-20T20:28:39.751Z,18.10
2018-04-20T20:31:08.061Z,18.10
2018-04-20T20:33:36.352Z,17.80
2018-04-20T20:36:04.679Z,17.90
2018-04-20T20:38:32.976Z,17.70
2018-04-20T20:41:01.489Z,17.30
2018-04-20T20:43:29.784Z,17.60
2018-04-20T20:45:58.100Z,17.30
2018-04-20T20:48:26.402Z,17.00
2018-04-20T20:50:56.421Z,16.90
2018-04-20T20:53:28.369Z,16.90
2018-04-20T20:55:56.690Z,16.80
2018-04-20T20:58:24.991Z,16.70
2018-04-20T21:00:53.310Z,16.70
2018-04-20T21:03:22.365Z,16.50
2018-04-20T21:05:50.685Z,16.40
2018-04-20T21:08:19.747Z,16.50
2018-04-20T21:10:48.045Z,16.50
2018-04-20T21:13:16.367Z,16.50
2018-04-20T21:15:44.669Z,16.30
2018-04-20T21:18:12.977Z,15.90
2018-04-20T21:20:41.276Z,15.90
2018-04-20T21:23:10.361Z,16.10
2018-04-20T21:25:39.427Z,16.00
2018-04-20T21:28:09.248Z,16.00
2018-04-20T21:30:37.542Z,16.00
2018-04-20T21:33:06.621Z,16.10
2018-04-20T21:35:34.913Z,16.00
2018-04-20T21:38:03.989Z,15.90
2018-04-20T21:40:32.287Z,15.90
2018-04-20T21:43:00.602Z,15.90
2018-04-20T21:45:28.894Z,15.60
2018-04-20T21:47:57.213Z,15.30
2018-04-20T21:50:25.505Z,15.20
2018-04-20T21:52:54.597Z,15.30
2018-04-20T21:55:23.657Z,15.10
2018-04-20T21:57:51.941Z,15.10
2018-04-20T22:00:20.253Z,15.20
2018-04-20T22:02:48.576Z,15.20
2018-04-20T22:05:16.888Z,14.90
2018-04-20T22:07:45.179Z,14.90
2018-04-20T22:10:14.270Z,15.00
2018-04-20T22:12:43.327Z,14.70
2018-04-20T22:15:11.647Z,14.60
2018-04-20T22:17:40.721Z,14.90
2018-04-20T22:20:09.034Z,14.90
2018-04-20T22:22:37.354Z,15.00
2018-04-20T22:25:05.676Z,14.80
2018-04-20T22:27:34.788Z,14.30
2018-04-20T22:30:03.132Z,14.30
2018-04-20T22:32:31.420Z,14.30
2018-04-20T22:35:00.496Z,14.40
2018-04-20T22:37:28.792Z,14.40
2018-04-20T22:39:57.875Z,14.10
2018-04-20T22:42:26.161Z,14.10
2018-04-20T22:44:54.477Z,14.20
2018-04-20T22:47:22.768Z,14.20
2018-04-20T22:49:51.124Z,14.10
2018-04-20T22:52:19.372Z,13.90
2018-04-20T22:54:47.695Z,13.60
2018-04-20T22:57:16.006Z,13.50
2018-04-20T22:59:44.291Z,13.70
2018-04-20T23:02:12.613Z,13.80
2018-04-20T23:04:40.908Z,13.90
2018-04-20T23:07:09.233Z,14.10
2018-04-20T23:09:37.547Z,14.10
2018-04-20T23:12:05.852Z,13.80
2018-04-20T23:14:34.159Z,13.70
2018-04-20T23:17:03.241Z,13.50
2018-04-20T23:19:31.533Z,13.50
2018-04-20T23:21:59.866Z,13.40
2018-04-20T23:24:28.163Z,13.40
2018-04-20T23:26:56.476Z,13.30
2018-04-20T23:29:25.546Z,13.10
2018-04-20T23:31:53.849Z,13.10
2018-04-20T23:34:22.911Z,13.10
2018-04-20T23:36:51.248Z,13.10
2018-04-20T23:39:19.551Z,13.20
2018-04-20T23:41:47.854Z,13.30
2018-04-20T23:44:16.152Z,13.20
2018-04-20T23:46:45.218Z,13.00
2018-04-20T23:49:13.525Z,13.00
2018-04-20T23:51:42.593Z,12.80
2018-04-20T23:54:10.934Z,12.70
2018-04-20T23:56:39.245Z,12.80
2018-04-20T23:59:07.560Z,12.80
